MMML/MXL METAR and TAF weather

Enter ICAO airport designator
Station Type Date Time Source
MMML METAR 2019/04/21 21:44 UTC NOAA

MMML 212144Z 32008KT 10SM SKC 28/M03 A2981


Station Type Date Time Source
MMML Decoded METAR 2019/04/21 21:44 UTC NOAA

Mexicali International Airport , Mexico (MMML) 32-38N 117-00W
Apr 21, 2019 - 05:44 PM EDT / 2019.04.21 2144 UTC
Wind: from the NW (320 degrees) at 9 MPH (8 KT):0
Visibility: 10 mile(s):0
Sky conditions: clear
Temperature: 82 F (28 C)
Dew Point: 26 F (-3 C)
Relative Humidity: 12%
Pressure (altimeter): 29.81 in. Hg (1009 hPa)
ob: MMML 212144Z 32008KT 10SM SKC 28/M03 A2981
cycle: 21

Station Type Date Time Source
MMML TAF 2019/04/21 18:57 UTC NOAA

TAF MMML 211649Z 2118/2218 30012KT P6SM SKC
FM220300 30005KT P6SM SKC
FM221700 30010KT P6SM SKC

Example: see airport list